createdAt,value
2018-05-24T00:00:20.745Z,16.57
2018-05-24T00:02:48.307Z,16.69
2018-05-24T00:08:06.671Z,16.57
2018-05-24T00:10:34.221Z,16.35
2018-05-24T00:13:01.792Z,16.40
2018-05-24T00:15:29.369Z,16.39
2018-05-24T00:17:56.911Z,16.44
2018-05-24T00:20:24.468Z,16.31
2018-05-24T00:22:52.014Z,16.39
2018-05-24T00:25:19.824Z,16.46
2018-05-24T00:30:37.602Z,16.41
2018-05-24T00:33:26.844Z,16.43
2018-05-24T00:35:54.431Z,16.49
2018-05-24T00:38:21.933Z,16.51
2018-05-24T00:40:50.128Z,16.36
2018-05-24T00:46:08.102Z,16.35
2018-05-24T00:48:35.708Z,16.28
2018-05-24T01:08:11.562Z,16.16
2018-05-24T01:13:31.663Z,16.22
2018-05-24T01:15:59.258Z,16.21
2018-05-24T01:18:26.833Z,16.18
2018-05-24T01:20:54.421Z,16.18
2018-05-24T01:23:21.945Z,16.22
2018-05-24T01:31:30.871Z,16.30
2018-05-24T01:37:00.702Z,16.35
2018-05-24T01:39:28.276Z,16.37
2018-05-24T01:41:55.875Z,16.33
2018-05-24T01:44:23.536Z,16.32
2018-05-24T01:46:51.074Z,16.07
2018-05-24T01:52:35.469Z,16.19
2018-05-24T01:55:03.041Z,16.36
2018-05-24T01:57:30.831Z,16.44
2018-05-24T01:59:58.445Z,16.54
2018-05-24T02:02:26.042Z,16.58
2018-05-24T02:04:53.589Z,16.52
2018-05-24T02:07:21.135Z,16.47
2018-05-24T02:12:39.812Z,16.57
2018-05-24T02:15:07.379Z,16.52
2018-05-24T02:17:34.947Z,16.59
2018-05-24T02:20:03.048Z,16.50
2018-05-24T02:22:30.605Z,16.35
2018-05-24T02:24:58.189Z,16.30
2018-05-24T02:27:25.764Z,16.37
2018-05-24T02:29:53.348Z,16.38
2018-05-24T02:32:20.953Z,16.45
2018-05-24T02:37:39.259Z,16.37
2018-05-24T02:40:07.992Z,16.45
2018-05-24T02:42:35.949Z,16.54
2018-05-24T02:45:03.526Z,16.49
2018-05-24T02:47:31.080Z,16.51
2018-05-24T03:01:23.419Z,16.54
2018-05-24T03:03:50.958Z,16.38
2018-05-24T03:06:18.510Z,16.32
2018-05-24T03:08:46.093Z,16.00
2018-05-24T03:11:13.847Z,16.30
2018-05-24T03:13:41.399Z,16.38
2018-05-24T03:16:08.987Z,16.39
2018-05-24T03:18:36.568Z,16.39
2018-05-24T03:21:04.148Z,16.34
2018-05-24T03:23:31.746Z,16.34
2018-05-24T03:25:59.344Z,16.33
2018-05-24T03:28:26.923Z,16.22
2018-05-24T03:30:54.476Z,16.23
2018-05-24T03:33:22.092Z,16.36
2018-05-24T03:35:49.641Z,16.31
2018-05-24T03:43:58.948Z,16.44
2018-05-24T03:46:26.431Z,16.46
2018-05-24T03:48:53.900Z,16.46
2018-05-24T03:51:21.391Z,16.34
2018-05-24T03:53:48.879Z,16.16
2018-05-24T03:56:16.386Z,16.32
2018-05-24T03:58:43.989Z,16.28
2018-05-24T04:01:23.354Z,16.27
2018-05-24T04:03:50.827Z,16.24
2018-05-24T04:06:18.337Z,16.20
2018-05-24T04:08:45.841Z,16.19
2018-05-24T04:11:14.204Z,16.19
2018-05-24T04:13:41.672Z,16.18
2018-05-24T04:16:09.200Z,16.21
2018-05-24T04:18:36.663Z,16.22
2018-05-24T04:21:04.137Z,16.25
2018-05-24T04:23:31.619Z,16.05
2018-05-24T04:25:59.116Z,16.23
2018-05-24T04:28:26.611Z,16.18
2018-05-24T04:30:54.209Z,16.25
2018-05-24T04:33:21.708Z,16.28
2018-05-24T04:35:49.181Z,16.32
2018-05-24T04:38:16.675Z,16.42
2018-05-24T04:40:44.165Z,16.41
2018-05-24T04:43:11.661Z,16.25
2018-05-24T04:45:39.155Z,16.34
2018-05-24T04:48:06.637Z,16.29
2018-05-24T04:50:34.374Z,16.37
2018-05-24T04:53:01.868Z,16.37
2018-05-24T04:55:29.361Z,16.36
2018-05-24T04:57:56.851Z,16.35
2018-05-24T05:00:24.332Z,16.31
2018-05-24T05:02:51.826Z,16.40
2018-05-24T05:05:19.309Z,16.25
2018-05-24T05:07:46.763Z,16.55
2018-05-24T05:10:14.219Z,16.83
2018-05-24T05:12:41.697Z,16.92
2018-05-24T05:15:09.179Z,16.99
2018-05-24T05:17:36.667Z,17.04
2018-05-24T05:20:04.140Z,17.05
2018-05-24T05:22:31.620Z,16.99
2018-05-24T05:24:59.166Z,16.98
2018-05-24T05:27:26.663Z,17.11
2018-05-24T05:29:54.161Z,17.23
2018-05-24T05:32:21.717Z,17.25
2018-05-24T05:34:49.274Z,17.40
2018-05-24T05:37:16.753Z,17.45
2018-05-24T05:39:44.251Z,17.52
2018-05-24T05:42:11.818Z,17.80
2018-05-24T05:44:39.285Z,17.86
2018-05-24T05:47:06.758Z,17.89
2018-05-24T05:49:34.236Z,17.97
2018-05-24T05:52:01.769Z,17.73
2018-05-24T05:54:29.320Z,18.11
2018-05-24T05:56:56.794Z,17.98
2018-05-24T05:59:24.361Z,18.28
2018-05-24T06:01:51.922Z,18.39
2018-05-24T06:04:19.314Z,18.37
2018-05-24T06:06:46.836Z,18.30
2018-05-24T06:09:14.319Z,18.46
2018-05-24T06:11:41.783Z,18.36
2018-05-24T06:14:09.245Z,18.32
2018-05-24T06:16:36.736Z,18.37
2018-05-24T06:36:13.075Z,18.75
2018-05-24T06:41:31.091Z,18.61
2018-05-24T06:43:58.571Z,18.79
2018-05-24T06:46:26.054Z,18.96
2018-05-24T06:48:55.943Z,19.08
2018-05-24T06:51:23.409Z,19.19
2018-05-24T06:53:50.971Z,19.27
2018-05-24T06:56:18.583Z,18.74
2018-05-24T06:58:46.259Z,19.22
2018-05-24T07:01:26.669Z,19.10
2018-05-24T07:06:44.421Z,19.28
2018-05-24T07:09:11.908Z,19.53
2018-05-24T07:11:39.389Z,19.69
2018-05-24T07:14:06.862Z,20.20
2018-05-24T07:30:48.066Z,21.20
2018-05-24T07:33:15.545Z,21.09
2018-05-24T07:35:43.025Z,20.98
2018-05-24T07:38:10.516Z,21.28
2018-05-24T07:40:38.755Z,21.27
2018-05-24T07:43:06.309Z,21.78
2018-05-24T07:45:33.786Z,21.94
2018-05-24T07:50:51.763Z,21.66
2018-05-24T07:53:19.247Z,22.32
2018-05-24T07:56:04.810Z,22.39
2018-05-24T07:58:32.290Z,22.25
2018-05-24T08:00:59.843Z,22.56
2018-05-24T08:03:27.324Z,22.66
2018-05-24T08:05:54.786Z,23.14
2018-05-24T08:08:22.253Z,23.67
2018-05-24T08:10:49.741Z,23.87
2018-05-24T08:13:17.224Z,24.64
2018-05-24T08:15:44.722Z,24.41
2018-05-24T08:18:12.194Z,24.72
2018-05-24T08:20:39.716Z,25.04
2018-05-24T08:23:07.182Z,24.56
2018-05-24T08:25:34.789Z,24.52
2018-05-24T08:28:02.274Z,24.64
2018-05-24T08:30:29.779Z,24.87
2018-05-24T08:32:57.278Z,25.19
2018-05-24T08:35:24.775Z,25.57
2018-05-24T08:37:52.361Z,24.82
2018-05-24T08:40:19.829Z,25.50
2018-05-24T08:42:47.286Z,25.67
2018-05-24T08:45:14.815Z,25.55
2018-05-24T08:47:42.457Z,25.26
2018-05-24T08:50:09.925Z,25.33
2018-05-24T08:52:37.395Z,25.83
2018-05-24T08:55:05.625Z,25.01
2018-05-24T08:57:33.155Z,26.24
2018-05-24T09:00:00.633Z,26.09
2018-05-24T09:02:28.128Z,26.43
2018-05-24T09:04:57.172Z,26.35
2018-05-24T09:07:24.753Z,26.87
2018-05-24T09:09:52.284Z,27.09
2018-05-24T09:12:19.766Z,26.82
2018-05-24T09:14:48.057Z,27.12
2018-05-24T09:17:15.521Z,27.34
2018-05-24T09:19:42.991Z,27.41
2018-05-24T09:22:10.679Z,26.67
2018-05-24T09:24:38.159Z,27.02
2018-05-24T09:27:05.647Z,26.55
2018-05-24T09:29:38.868Z,27.27
2018-05-24T09:32:06.360Z,27.30
2018-05-24T09:34:33.872Z,26.92
2018-05-24T09:37:01.372Z,27.44
2018-05-24T09:39:28.841Z,26.94
2018-05-24T09:41:56.356Z,27.90
2018-05-24T09:44:23.886Z,27.43
2018-05-24T09:46:51.400Z,27.12
2018-05-24T09:49:18.877Z,26.87
2018-05-24T09:51:46.337Z,26.81
2018-05-24T09:54:13.822Z,26.84
2018-05-24T09:56:41.285Z,26.90
2018-05-24T10:04:46.085Z,27.80
2018-05-24T10:07:13.574Z,28.26
2018-05-24T10:09:41.126Z,29.33
2018-05-24T10:12:08.600Z,29.57
2018-05-24T10:14:36.106Z,29.71
2018-05-24T10:25:39.782Z,30.32
2018-05-24T10:28:07.239Z,29.85
2018-05-24T10:30:34.714Z,29.82
2018-05-24T10:33:02.190Z,30.22
2018-05-24T10:35:29.710Z,30.13
2018-05-24T10:37:57.178Z,29.75
2018-05-24T10:40:24.665Z,29.99
2018-05-24T10:42:52.128Z,29.60
2018-05-24T10:45:19.670Z,30.19
2018-05-24T10:47:47.081Z,30.06
2018-05-24T10:50:14.564Z,29.62
2018-05-24T10:52:42.014Z,29.60
2018-05-24T10:55:09.499Z,29.56
2018-05-24T10:57:36.990Z,30.31
2018-05-24T11:00:04.484Z,30.38
2018-05-24T11:02:31.966Z,29.92
2018-05-24T11:04:59.496Z,29.38
2018-05-24T11:07:26.994Z,30.31
2018-05-24T11:09:54.496Z,30.43
2018-05-24T11:12:21.976Z,31.15
2018-05-24T11:14:49.460Z,30.82
2018-05-24T11:17:16.959Z,31.20
2018-05-24T11:19:44.538Z,30.86
2018-05-24T11:22:12.025Z,30.87
2018-05-24T11:24:39.595Z,30.26
2018-05-24T11:27:07.066Z,30.01
2018-05-24T11:29:34.515Z,30.18
2018-05-24T11:32:02.042Z,29.75
2018-05-24T11:43:01.247Z,31.53
2018-05-24T11:45:28.848Z,31.57
2018-05-24T11:47:56.339Z,30.78
2018-05-24T11:53:14.302Z,31.67
2018-05-24T11:55:41.789Z,31.72
2018-05-24T11:58:09.269Z,32.95
2018-05-24T12:00:36.723Z,32.34
2018-05-24T12:03:04.208Z,32.43
2018-05-24T12:05:31.703Z,32.66
2018-05-24T12:13:40.665Z,31.76
2018-05-24T12:16:08.132Z,32.33
2018-05-24T12:18:38.433Z,33.29
2018-05-24T12:21:05.920Z,33.36
2018-05-24T12:23:33.436Z,32.39
2018-05-24T12:26:00.986Z,33.87
2018-05-24T12:28:28.471Z,34.51
2018-05-24T12:30:55.965Z,34.42
2018-05-24T12:39:04.534Z,34.54
2018-05-24T12:41:32.094Z,31.81
2018-05-24T12:43:59.516Z,29.32
2018-05-24T12:46:27.028Z,27.59
2018-05-24T12:48:54.644Z,27.00
2018-05-24T12:51:22.170Z,26.63
2018-05-24T12:53:49.646Z,27.05
2018-05-24T12:56:17.154Z,27.03
2018-05-24T12:58:44.621Z,28.12
2018-05-24T13:01:12.080Z,29.65
2018-05-24T13:03:39.580Z,29.43
2018-05-24T13:06:07.040Z,30.58
2018-05-24T13:08:34.505Z,31.03
2018-05-24T13:11:01.976Z,30.64
2018-05-24T13:13:29.456Z,31.44
2018-05-24T13:15:56.917Z,32.38
2018-05-24T13:18:24.416Z,33.04
2018-05-24T13:20:51.877Z,35.09
2018-05-24T13:23:19.351Z,33.98
2018-05-24T13:25:46.835Z,33.65
2018-05-24T13:28:14.305Z,33.90
2018-05-24T13:30:41.797Z,35.47
2018-05-24T13:33:09.304Z,35.73
2018-05-24T13:35:36.761Z,37.25
2018-05-24T13:38:04.234Z,38.04
2018-05-24T13:40:31.863Z,36.00
2018-05-24T13:42:59.339Z,35.39
2018-05-24T13:45:26.822Z,35.48
2018-05-24T13:47:54.304Z,37.49
2018-05-24T13:50:21.769Z,38.85
2018-05-24T13:52:49.252Z,39.32
2018-05-24T13:55:16.747Z,39.54
2018-05-24T13:57:46.208Z,41.27
2018-05-24T14:00:13.718Z,43.29
2018-05-24T14:02:41.206Z,41.98
2018-05-24T14:05:08.703Z,43.16
2018-05-24T14:07:36.164Z,43.98
2018-05-24T14:10:03.753Z,42.22
2018-05-24T14:12:31.206Z,40.66
2018-05-24T14:14:58.771Z,42.55
2018-05-24T14:17:26.251Z,41.21
2018-05-24T14:19:53.724Z,41.32
2018-05-24T14:22:21.194Z,42.45
2018-05-24T14:24:48.715Z,40.35
2018-05-24T14:27:16.323Z,40.25
2018-05-24T14:29:43.821Z,43.54
2018-05-24T14:32:11.284Z,43.95
2018-05-24T14:34:38.824Z,43.95
2018-05-24T14:37:06.285Z,44.31
2018-05-24T14:39:33.756Z,43.42
2018-05-24T14:42:01.287Z,39.38
2018-05-24T14:44:28.875Z,36.95
2018-05-24T14:46:56.365Z,35.71
2018-05-24T14:49:23.846Z,36.26
2018-05-24T14:51:51.322Z,34.95
2018-05-24T14:54:18.887Z,33.67
2018-05-24T14:56:46.344Z,32.79
2018-05-24T14:59:13.799Z,31.83
2018-05-24T15:01:41.268Z,31.34
2018-05-24T15:04:08.812Z,30.71
2018-05-24T15:06:36.277Z,29.71
2018-05-24T15:09:06.717Z,29.47
2018-05-24T15:11:34.204Z,28.98
2018-05-24T15:14:01.675Z,28.66
2018-05-24T15:16:29.175Z,28.48
2018-05-24T15:18:56.647Z,28.07
2018-05-24T15:24:14.953Z,27.93
2018-05-24T15:26:42.440Z,27.66
2018-05-24T15:29:09.935Z,27.30
2018-05-24T15:31:37.523Z,26.94
2018-05-24T15:34:07.296Z,27.06
2018-05-24T15:36:34.840Z,26.50
2018-05-24T15:39:02.306Z,26.18
2018-05-24T15:41:29.825Z,26.23
2018-05-24T15:43:57.332Z,25.90
2018-05-24T15:46:24.804Z,25.37
2018-05-24T15:48:52.307Z,25.41
2018-05-24T15:51:19.789Z,25.48
2018-05-24T15:56:38.369Z,25.35
2018-05-24T15:59:05.864Z,25.04
2018-05-24T16:04:23.771Z,24.75
2018-05-24T16:09:41.530Z,24.64
2018-05-24T16:12:09.028Z,24.48
2018-05-24T16:14:36.588Z,24.11
2018-05-24T16:17:04.109Z,24.03
2018-05-24T16:19:31.587Z,24.23
2018-05-24T16:21:59.102Z,24.18
2018-05-24T16:24:26.572Z,24.39
2018-05-24T16:26:54.095Z,24.45
2018-05-24T16:29:21.589Z,24.17
2018-05-24T16:31:49.072Z,24.38
2018-05-24T16:34:16.548Z,24.22
2018-05-24T16:36:44.012Z,24.31
2018-05-24T16:42:02.256Z,24.12
2018-05-24T16:47:20.196Z,24.12
2018-05-24T16:49:47.657Z,24.20
2018-05-24T16:52:15.194Z,24.11
2018-05-24T16:54:42.701Z,24.23
2018-05-24T16:57:10.163Z,24.06
2018-05-24T16:59:37.712Z,23.88
2018-05-24T17:02:05.181Z,23.74
2018-05-24T17:04:32.657Z,24.07
2018-05-24T17:07:00.128Z,24.23
2018-05-24T17:09:27.616Z,24.27
2018-05-24T17:11:55.110Z,24.26
2018-05-24T17:14:22.568Z,23.96
2018-05-24T17:16:50.063Z,24.04
2018-05-24T17:19:17.543Z,23.88
2018-05-24T17:21:45.011Z,23.94
2018-05-24T17:24:12.464Z,24.00
2018-05-24T17:26:39.952Z,24.12
2018-05-24T17:29:07.575Z,23.88
2018-05-24T17:31:35.129Z,23.70
2018-05-24T17:34:02.639Z,23.39
2018-05-24T17:36:30.133Z,23.21
2018-05-24T17:38:57.706Z,23.21
2018-05-24T17:41:25.275Z,23.01
2018-05-24T17:43:52.758Z,22.91
2018-05-24T17:46:20.216Z,22.57
2018-05-24T17:48:47.671Z,22.76
2018-05-24T17:51:15.546Z,22.71
2018-05-24T17:53:43.030Z,22.42
2018-05-24T17:56:10.532Z,22.45
2018-05-24T17:58:38.004Z,22.24
2018-05-24T18:01:05.563Z,21.80
2018-05-24T18:03:33.036Z,21.60
2018-05-24T18:06:00.659Z,21.24
2018-05-24T18:08:28.203Z,21.08
2018-05-24T18:10:55.706Z,21.00
2018-05-24T18:13:23.162Z,20.87
2018-05-24T18:15:50.630Z,20.53
2018-05-24T18:18:18.092Z,20.67
2018-05-24T18:20:45.589Z,20.39
2018-05-24T18:23:13.148Z,20.01
2018-05-24T18:25:40.643Z,20.06
2018-05-24T18:28:08.109Z,20.15
2018-05-24T18:30:35.568Z,20.06
2018-05-24T18:33:03.037Z,19.89
2018-05-24T18:35:30.524Z,19.76
2018-05-24T18:37:57.986Z,19.82
2018-05-24T18:40:25.477Z,19.78
2018-05-24T18:42:53.058Z,19.82
2018-05-24T18:45:20.453Z,19.61
2018-05-24T18:47:47.935Z,19.67
2018-05-24T18:50:15.412Z,19.66
2018-05-24T18:52:42.987Z,19.67
2018-05-24T18:55:10.491Z,19.41
2018-05-24T18:57:37.958Z,19.43
2018-05-24T19:00:05.415Z,19.28
2018-05-24T19:02:32.890Z,19.23
2018-05-24T19:05:00.482Z,19.25
2018-05-24T19:07:27.964Z,18.94
2018-05-24T19:09:55.495Z,18.89
2018-05-24T19:12:22.980Z,18.95
2018-05-24T19:14:50.491Z,18.92
2018-05-24T19:17:17.977Z,18.65
2018-05-24T19:19:45.457Z,18.69
2018-05-24T19:22:12.928Z,18.69
2018-05-24T19:24:40.441Z,18.58
2018-05-24T19:27:07.909Z,18.43
2018-05-24T19:29:35.422Z,18.38
2018-05-24T19:32:02.919Z,18.28
2018-05-24T19:34:30.394Z,18.24
2018-05-24T19:36:57.873Z,18.18
2018-05-24T19:39:25.354Z,17.96
2018-05-24T19:41:52.938Z,18.05
2018-05-24T19:44:20.438Z,17.99
2018-05-24T19:46:47.909Z,17.89
2018-05-24T19:49:15.402Z,17.78
2018-05-24T19:51:42.898Z,17.77
2018-05-24T19:54:10.375Z,17.76
2018-05-24T19:56:37.842Z,17.85
2018-05-24T19:59:05.491Z,17.77
2018-05-24T20:01:32.944Z,17.74
2018-05-24T20:04:00.422Z,17.61
2018-05-24T20:06:28.285Z,17.56
2018-05-24T20:08:56.146Z,17.44
2018-05-24T20:11:24.015Z,17.43
2018-05-24T20:13:51.900Z,17.40
2018-05-24T20:16:19.749Z,17.44
2018-05-24T20:18:47.619Z,17.42
2018-05-24T20:21:15.585Z,17.38
2018-05-24T20:23:43.453Z,17.40
2018-05-24T20:26:11.332Z,17.39
2018-05-24T20:28:39.184Z,17.41
2018-05-24T20:31:07.003Z,17.31
2018-05-24T20:33:34.925Z,17.22
2018-05-24T20:36:02.783Z,17.15
2018-05-24T20:38:30.650Z,17.11
2018-05-24T20:40:58.511Z,17.09
2018-05-24T20:43:26.089Z,16.99
2018-05-24T20:45:53.578Z,17.08
2018-05-24T20:48:21.144Z,17.00
2018-05-24T20:50:48.692Z,16.95
2018-05-24T20:53:16.166Z,16.95
2018-05-24T20:55:43.635Z,16.91
2018-05-24T20:58:11.098Z,16.82
2018-05-24T21:00:38.552Z,16.85
2018-05-24T21:03:06.003Z,16.79
2018-05-24T21:05:33.469Z,16.69
2018-05-24T21:08:00.939Z,16.62
2018-05-24T21:10:28.390Z,16.54
2018-05-24T21:12:55.873Z,16.63
2018-05-24T21:15:23.343Z,16.65
2018-05-24T21:17:50.796Z,16.59
2018-05-24T21:20:18.309Z,16.63
2018-05-24T21:22:45.766Z,16.64
2018-05-24T21:25:13.252Z,16.64
2018-05-24T21:27:40.718Z,16.60
2018-05-24T21:30:08.179Z,16.61
2018-05-24T21:32:35.644Z,16.61
2018-05-24T21:35:03.121Z,16.60
2018-05-24T21:37:30.586Z,16.59
2018-05-24T21:39:58.047Z,16.52
2018-05-24T21:42:25.524Z,16.49
2018-05-24T21:44:53.010Z,16.43
2018-05-24T21:47:20.464Z,16.45
2018-05-24T21:49:48.023Z,16.28
2018-05-24T21:52:15.485Z,16.22
2018-05-24T21:54:42.949Z,16.28
2018-05-24T21:57:10.429Z,16.25
2018-05-24T21:59:37.900Z,16.14
2018-05-24T22:02:05.436Z,16.08
2018-05-24T22:04:32.871Z,16.13
2018-05-24T22:07:00.334Z,16.14
2018-05-24T22:09:27.798Z,16.09
2018-05-24T22:11:55.276Z,16.18
2018-05-24T22:14:22.747Z,16.14
2018-05-24T22:16:50.207Z,16.10
2018-05-24T22:19:17.721Z,16.00
2018-05-24T22:21:45.187Z,15.99
2018-05-24T22:24:12.660Z,15.97
2018-05-24T22:26:40.141Z,15.89
2018-05-24T22:29:07.600Z,15.84
2018-05-24T22:31:35.061Z,15.81
2018-05-24T22:34:02.539Z,15.79
2018-05-24T22:36:30.030Z,15.72
2018-05-24T22:38:57.515Z,15.66
2018-05-24T22:41:25.332Z,15.70
2018-05-24T22:43:52.882Z,15.71
2018-05-24T22:46:20.373Z,15.67
2018-05-24T22:48:47.855Z,15.67
2018-05-24T22:51:15.346Z,15.65
2018-05-24T22:53:42.829Z,15.59
2018-05-24T22:56:10.305Z,15.62
2018-05-24T22:58:37.790Z,15.68
2018-05-24T23:01:05.363Z,15.65
2018-05-24T23:03:32.863Z,15.57
2018-05-24T23:06:00.369Z,15.60
2018-05-24T23:08:27.870Z,15.66
2018-05-24T23:10:55.377Z,15.68
2018-05-24T23:13:22.877Z,15.61
2018-05-24T23:15:50.363Z,15.48
2018-05-24T23:18:17.851Z,15.57
2018-05-24T23:20:45.376Z,15.57
2018-05-24T23:23:12.861Z,15.46
2018-05-24T23:25:40.354Z,15.43
2018-05-24T23:28:07.825Z,15.43
2018-05-24T23:30:35.339Z,15.45
2018-05-24T23:33:02.812Z,15.39
2018-05-24T23:35:30.304Z,15.47
2018-05-24T23:40:31.719Z,15.34
2018-05-24T23:42:59.292Z,15.37
2018-05-24T23:45:26.751Z,15.43
2018-05-24T23:47:54.221Z,15.37
2018-05-24T23:50:21.725Z,15.26
2018-05-24T23:52:49.215Z,15.34
2018-05-24T23:55:16.679Z,15.42
2018-05-24T23:57:44.223Z,15.33
